sensor_id;sensor_type;location;lat;lon;timestamp;temperature;humidity
21622;DHT22;10973;46.706;12.340;2022-07-29T00:01:08;16.10;99.90
21622;DHT22;10973;46.706;12.340;2022-07-29T00:03:45;16.20;99.90
21622;DHT22;10973;46.706;12.340;2022-07-29T00:06:15;16.20;99.90
21622;DHT22;10973;46.706;12.340;2022-07-29T00:08:42;16.20;99.90
21622;DHT22;10973;46.706;12.340;2022-07-29T00:11:10;16.20;99.90
21622;DHT22;10973;46.706;12.340;2022-07-29T00:13:37;16.10;99.90
21622;DHT22;10973;46.706;12.340;2022-07-29T00:16:05;16.10;99.90
21622;DHT22;10973;46.706;12.340;2022-07-29T00:18:32;16.10;99.90
21622;DHT22;10973;46.706;12.340;2022-07-29T00:20:59;16.10;99.90
21622;DHT22;10973;46.706;12.340;2022-07-29T00:23:26;16.00;99.90
21622;DHT22;10973;46.706;12.340;2022-07-29T00:25:55;15.90;99.90
21622;DHT22;10973;46.706;12.340;2022-07-29T00:28:22;15.90;99.90
21622;DHT22;10973;46.706;12.340;2022-07-29T00:30:50;16.00;99.90
21622;DHT22;10973;46.706;12.340;2022-07-29T00:33:17;16.10;99.90
21622;DHT22;10973;46.706;12.340;2022-07-29T00:35:44;16.00;99.90
21622;DHT22;10973;46.706;12.340;2022-07-29T00:38:13;16.00;99.90
21622;DHT22;10973;46.706;12.340;2022-07-29T00:40:42;15.90;99.90
21622;DHT22;10973;46.706;12.340;2022-07-29T00:43:11;16.00;99.90
21622;DHT22;10973;46.706;12.340;2022-07-29T00:45:41;16.00;99.90
21622;DHT22;10973;46.706;12.340;2022-07-29T00:48:09;16.10;99.90
21622;DHT22;10973;46.706;12.340;2022-07-29T00:50:37;16.00;99.90
21622;DHT22;10973;46.706;12.340;2022-07-29T00:53:07;15.90;99.90
21622;DHT22;10973;46.706;12.340;2022-07-29T00:55:35;15.80;99.90
21622;DHT22;10973;46.706;12.340;2022-07-29T00:58:03;15.90;99.90
21622;DHT22;10973;46.706;12.340;2022-07-29T01:00:30;15.80;99.90
21622;DHT22;10973;46.706;12.340;2022-07-29T01:02:58;15.80;99.90
21622;DHT22;10973;46.706;12.340;2022-07-29T01:05:27;15.80;99.90
21622;DHT22;10973;46.706;12.340;2022-07-29T01:08:15;15.80;99.90
21622;DHT22;10973;46.706;12.340;2022-07-29T01:10:44;15.90;99.90
21622;DHT22;10973;46.706;12.340;2022-07-29T01:13:14;15.90;99.90
21622;DHT22;10973;46.706;12.340;2022-07-29T01:15:58;15.90;99.90
21622;DHT22;10973;46.706;12.340;2022-07-29T01:18:37;15.80;99.90
21622;DHT22;10973;46.706;12.340;2022-07-29T01:30:25;15.40;99.90
21622;DHT22;10973;46.706;12.340;2022-07-29T01:32:58;15.30;99.90
21622;DHT22;10973;46.706;12.340;2022-07-29T01:35:40;15.30;99.90
21622;DHT22;10973;46.706;12.340;2022-07-29T01:38:28;15.20;99.90
21622;DHT22;10973;46.706;12.340;2022-07-29T01:43:39;15.10;99.90
21622;DHT22;10973;46.706;12.340;2022-07-29T01:46:14;15.00;99.90
21622;DHT22;10973;46.706;12.340;2022-07-29T01:51:48;15.00;99.90
21622;DHT22;10973;46.706;12.340;2022-07-29T01:56:55;15.00;99.90
21622;DHT22;10973;46.706;12.340;2022-07-29T01:59:25;15.10;99.90
21622;DHT22;10973;46.706;12.340;2022-07-29T02:01:54;15.10;99.90
21622;DHT22;10973;46.706;12.340;2022-07-29T02:04:25;15.00;99.90
21622;DHT22;10973;46.706;12.340;2022-07-29T02:07:00;15.00;99.90
21622;DHT22;10973;46.706;12.340;2022-07-29T02:09:30;15.00;99.90
21622;DHT22;10973;46.706;12.340;2022-07-29T02:12:00;15.00;99.90
21622;DHT22;10973;46.706;12.340;2022-07-29T02:14:34;14.90;99.90
21622;DHT22;10973;46.706;12.340;2022-07-29T02:17:05;15.00;99.90
21622;DHT22;10973;46.706;12.340;2022-07-29T02:19:33;14.90;99.90
21622;DHT22;10973;46.706;12.340;2022-07-29T02:22:04;14.70;99.90
21622;DHT22;10973;46.706;12.340;2022-07-29T02:24:35;14.70;99.90
21622;DHT22;10973;46.706;12.340;2022-07-29T02:27:05;14.60;99.90
21622;DHT22;10973;46.706;12.340;2022-07-29T02:32:04;14.60;99.90
21622;DHT22;10973;46.706;12.340;2022-07-29T02:34:35;14.60;99.90
21622;DHT22;10973;46.706;12.340;2022-07-29T02:37:05;14.70;99.90
21622;DHT22;10973;46.706;12.340;2022-07-29T02:39:35;14.70;99.90
21622;DHT22;10973;46.706;12.340;2022-07-29T02:42:07;14.60;99.90
21622;DHT22;10973;46.706;12.340;2022-07-29T02:44:39;14.60;99.90
21622;DHT22;10973;46.706;12.340;2022-07-29T02:47:23;14.60;99.90
21622;DHT22;10973;46.706;12.340;2022-07-29T02:50:21;14.70;99.90
21622;DHT22;10973;46.706;12.340;2022-07-29T02:53:41;14.60;99.90
21622;DHT22;10973;46.706;12.340;2022-07-29T02:55:59;14.60;99.90
21622;DHT22;10973;46.706;12.340;2022-07-29T02:58:39;14.60;99.90
21622;DHT22;10973;46.706;12.340;2022-07-29T03:01:23;14.60;99.90
21622;DHT22;10973;46.706;12.340;2022-07-29T03:03:53;14.50;99.90
21622;DHT22;10973;46.706;12.340;2022-07-29T03:06:24;14.40;99.90
21622;DHT22;10973;46.706;12.340;2022-07-29T03:09:08;14.40;99.90
21622;DHT22;10973;46.706;12.340;2022-07-29T03:11:40;14.50;99.90
21622;DHT22;10973;46.706;12.340;2022-07-29T03:14:18;14.50;99.90
21622;DHT22;10973;46.706;12.340;2022-07-29T03:16:47;14.50;99.90
21622;DHT22;10973;46.706;12.340;2022-07-29T03:19:16;14.40;99.90
21622;DHT22;10973;46.706;12.340;2022-07-29T03:21:44;14.50;99.90
21622;DHT22;10973;46.706;12.340;2022-07-29T03:24:28;14.40;99.90
21622;DHT22;10973;46.706;12.340;2022-07-29T03:26:57;14.40;99.90
21622;DHT22;10973;46.706;12.340;2022-07-29T03:29:25;14.40;99.90
21622;DHT22;10973;46.706;12.340;2022-07-29T03:32:02;14.30;99.90
21622;DHT22;10973;46.706;12.340;2022-07-29T03:34:35;14.30;99.90
21622;DHT22;10973;46.706;12.340;2022-07-29T03:37:04;14.40;99.90
21622;DHT22;10973;46.706;12.340;2022-07-29T03:39:36;14.40;99.90
21622;DHT22;10973;46.706;12.340;2022-07-29T03:42:10;14.20;99.90
21622;DHT22;10973;46.706;12.340;2022-07-29T03:44:42;14.40;99.90
21622;DHT22;10973;46.706;12.340;2022-07-29T03:47:13;14.50;99.90
21622;DHT22;10973;46.706;12.340;2022-07-29T03:49:44;14.60;99.90
21622;DHT22;10973;46.706;12.340;2022-07-29T03:52:13;14.50;99.90
21622;DHT22;10973;46.706;12.340;2022-07-29T03:54:41;14.60;99.90
21622;DHT22;10973;46.706;12.340;2022-07-29T03:57:11;14.50;99.90
21622;DHT22;10973;46.706;12.340;2022-07-29T03:59:39;14.60;99.90
21622;DHT22;10973;46.706;12.340;2022-07-29T04:02:09;14.50;99.90
21622;DHT22;10973;46.706;12.340;2022-07-29T04:04:41;14.50;99.90
21622;DHT22;10973;46.706;12.340;2022-07-29T04:07:12;14.50;99.90
21622;DHT22;10973;46.706;12.340;2022-07-29T04:09:41;14.50;99.90
21622;DHT22;10973;46.706;12.340;2022-07-29T04:12:09;14.40;99.90
21622;DHT22;10973;46.706;12.340;2022-07-29T04:14:36;14.40;99.90
21622;DHT22;10973;46.706;12.340;2022-07-29T04:17:04;14.30;99.90
21622;DHT22;10973;46.706;12.340;2022-07-29T04:19:32;14.30;99.90
21622;DHT22;10973;46.706;12.340;2022-07-29T04:22:00;14.20;99.90
21622;DHT22;10973;46.706;12.340;2022-07-29T04:24:28;14.20;99.90
21622;DHT22;10973;46.706;12.340;2022-07-29T04:26:55;14.20;99.90
21622;DHT22;10973;46.706;12.340;2022-07-29T04:29:22;14.30;99.90
21622;DHT22;10973;46.706;12.340;2022-07-29T04:31:50;14.20;99.90
21622;DHT22;10973;46.706;12.340;2022-07-29T04:34:17;14.20;99.90
21622;DHT22;10973;46.706;12.340;2022-07-29T04:36:45;14.10;99.90
21622;DHT22;10973;46.706;12.340;2022-07-29T04:39:12;14.00;99.90
21622;DHT22;10973;46.706;12.340;2022-07-29T04:41:46;14.00;99.90
21622;DHT22;10973;46.706;12.340;2022-07-29T04:44:13;14.10;99.90
21622;DHT22;10973;46.706;12.340;2022-07-29T04:46:42;14.10;99.90
21622;DHT22;10973;46.706;12.340;2022-07-29T04:49:10;14.10;99.90
21622;DHT22;10973;46.706;12.340;2022-07-29T04:51:37;14.10;99.90
21622;DHT22;10973;46.706;12.340;2022-07-29T04:54:04;14.10;99.90
21622;DHT22;10973;46.706;12.340;2022-07-29T04:56:32;14.20;99.90
21622;DHT22;10973;46.706;12.340;2022-07-29T04:58:59;14.20;99.90
21622;DHT22;10973;46.706;12.340;2022-07-29T05:01:26;14.30;99.90
21622;DHT22;10973;46.706;12.340;2022-07-29T05:03:54;14.30;99.90
21622;DHT22;10973;46.706;12.340;2022-07-29T05:06:26;14.20;99.90
21622;DHT22;10973;46.706;12.340;2022-07-29T05:08:53;14.30;99.90
21622;DHT22;10973;46.706;12.340;2022-07-29T05:11:20;14.20;99.90
21622;DHT22;10973;46.706;12.340;2022-07-29T05:13:53;14.30;99.90
21622;DHT22;10973;46.706;12.340;2022-07-29T05:16:20;14.30;99.90
21622;DHT22;10973;46.706;12.340;2022-07-29T05:18:47;14.20;99.90
21622;DHT22;10973;46.706;12.340;2022-07-29T05:21:15;14.30;99.90
21622;DHT22;10973;46.706;12.340;2022-07-29T05:23:43;14.30;99.90
21622;DHT22;10973;46.706;12.340;2022-07-29T05:26:10;14.40;99.90
21622;DHT22;10973;46.706;12.340;2022-07-29T05:28:37;14.50;99.90
21622;DHT22;10973;46.706;12.340;2022-07-29T05:31:04;14.50;99.90
21622;DHT22;10973;46.706;12.340;2022-07-29T05:33:32;14.50;99.90
21622;DHT22;10973;46.706;12.340;2022-07-29T05:36:05;14.50;99.90
21622;DHT22;10973;46.706;12.340;2022-07-29T05:38:35;14.50;99.90
21622;DHT22;10973;46.706;12.340;2022-07-29T05:41:03;14.50;99.90
21622;DHT22;10973;46.706;12.340;2022-07-29T05:43:31;14.50;99.90
21622;DHT22;10973;46.706;12.340;2022-07-29T05:45:58;14.50;99.90
21622;DHT22;10973;46.706;12.340;2022-07-29T05:48:27;14.60;99.90
21622;DHT22;10973;46.706;12.340;2022-07-29T05:50:54;14.70;99.90
21622;DHT22;10973;46.706;12.340;2022-07-29T05:53:22;14.80;99.90
21622;DHT22;10973;46.706;12.340;2022-07-29T05:55:50;14.80;99.90
21622;DHT22;10973;46.706;12.340;2022-07-29T05:58:17;14.70;99.90
21622;DHT22;10973;46.706;12.340;2022-07-29T06:00:45;14.90;99.90
21622;DHT22;10973;46.706;12.340;2022-07-29T06:03:12;14.90;99.90
21622;DHT22;10973;46.706;12.340;2022-07-29T06:05:39;15.00;99.90
21622;DHT22;10973;46.706;12.340;2022-07-29T06:08:06;14.90;99.90
21622;DHT22;10973;46.706;12.340;2022-07-29T06:10:37;15.00;99.90
21622;DHT22;10973;46.706;12.340;2022-07-29T06:13:04;15.00;99.90
21622;DHT22;10973;46.706;12.340;2022-07-29T06:15:32;15.00;99.90
21622;DHT22;10973;46.706;12.340;2022-07-29T06:17:59;15.10;99.90
21622;DHT22;10973;46.706;12.340;2022-07-29T06:20:31;15.10;99.90
21622;DHT22;10973;46.706;12.340;2022-07-29T06:22:59;15.20;99.90
21622;DHT22;10973;46.706;12.340;2022-07-29T06:25:27;15.30;99.90
21622;DHT22;10973;46.706;12.340;2022-07-29T06:27:54;15.30;99.90
21622;DHT22;10973;46.706;12.340;2022-07-29T06:30:21;15.30;99.90
21622;DHT22;10973;46.706;12.340;2022-07-29T06:32:49;15.30;99.90
21622;DHT22;10973;46.706;12.340;2022-07-29T06:35:16;15.40;99.90
21622;DHT22;10973;46.706;12.340;2022-07-29T06:38:03;15.40;99.90
21622;DHT22;10973;46.706;12.340;2022-07-29T06:40:51;15.40;99.90
21622;DHT22;10973;46.706;12.340;2022-07-29T06:43:18;15.40;99.90
21622;DHT22;10973;46.706;12.340;2022-07-29T06:45:45;15.50;99.90
21622;DHT22;10973;46.706;12.340;2022-07-29T06:48:13;15.60;99.90
21622;DHT22;10973;46.706;12.340;2022-07-29T06:50:40;15.70;99.90
21622;DHT22;10973;46.706;12.340;2022-07-29T06:53:07;15.80;99.90
21622;DHT22;10973;46.706;12.340;2022-07-29T06:55:34;15.90;99.90
21622;DHT22;10973;46.706;12.340;2022-07-29T06:58:01;15.80;99.90
21622;DHT22;10973;46.706;12.340;2022-07-29T07:00:28;15.80;99.90
21622;DHT22;10973;46.706;12.340;2022-07-29T07:02:56;15.90;99.90
21622;DHT22;10973;46.706;12.340;2022-07-29T07:05:23;15.90;99.90
21622;DHT22;10973;46.706;12.340;2022-07-29T07:07:50;16.00;99.90
21622;DHT22;10973;46.706;12.340;2022-07-29T07:10:18;16.00;99.90
21622;DHT22;10973;46.706;12.340;2022-07-29T07:12:45;16.10;99.90
21622;DHT22;10973;46.706;12.340;2022-07-29T07:15:12;16.10;99.90
21622;DHT22;10973;46.706;12.340;2022-07-29T07:17:40;16.20;99.90
21622;DHT22;10973;46.706;12.340;2022-07-29T07:20:07;16.20;99.90
21622;DHT22;10973;46.706;12.340;2022-07-29T07:22:35;16.30;99.90
21622;DHT22;10973;46.706;12.340;2022-07-29T07:25:05;16.40;99.90
21622;DHT22;10973;46.706;12.340;2022-07-29T07:27:33;16.30;99.90
21622;DHT22;10973;46.706;12.340;2022-07-29T07:30:01;16.40;99.90
21622;DHT22;10973;46.706;12.340;2022-07-29T07:32:35;16.40;99.90
21622;DHT22;10973;46.706;12.340;2022-07-29T07:35:06;16.40;99.90
21622;DHT22;10973;46.706;12.340;2022-07-29T07:37:35;16.40;99.90
21622;DHT22;10973;46.706;12.340;2022-07-29T07:40:04;16.50;99.90
21622;DHT22;10973;46.706;12.340;2022-07-29T07:42:31;16.60;99.90
21622;DHT22;10973;46.706;12.340;2022-07-29T07:44:59;16.60;99.90
21622;DHT22;10973;46.706;12.340;2022-07-29T07:47:43;16.60;99.90
21622;DHT22;10973;46.706;12.340;2022-07-29T07:50:11;16.70;99.90
21622;DHT22;10973;46.706;12.340;2022-07-29T07:52:49;16.70;99.90
21622;DHT22;10973;46.706;12.340;2022-07-29T07:55:19;16.70;99.90
21622;DHT22;10973;46.706;12.340;2022-07-29T07:57:47;16.80;99.90
21622;DHT22;10973;46.706;12.340;2022-07-29T08:00:15;16.80;99.90
21622;DHT22;10973;46.706;12.340;2022-07-29T08:02:43;16.90;99.90
21622;DHT22;10973;46.706;12.340;2022-07-29T08:05:11;16.90;99.90
21622;DHT22;10973;46.706;12.340;2022-07-29T08:07:39;16.90;99.90
21622;DHT22;10973;46.706;12.340;2022-07-29T08:10:07;16.80;99.90
21622;DHT22;10973;46.706;12.340;2022-07-29T08:12:34;16.90;99.90
21622;DHT22;10973;46.706;12.340;2022-07-29T08:15:02;16.80;99.90
21622;DHT22;10973;46.706;12.340;2022-07-29T08:17:29;16.90;99.90
21622;DHT22;10973;46.706;12.340;2022-07-29T08:20:01;16.90;99.90
21622;DHT22;10973;46.706;12.340;2022-07-29T08:22:29;16.90;99.90
21622;DHT22;10973;46.706;12.340;2022-07-29T08:24:56;16.90;99.90
21622;DHT22;10973;46.706;12.340;2022-07-29T08:27:23;16.90;99.90
21622;DHT22;10973;46.706;12.340;2022-07-29T08:30:11;17.00;99.90
21622;DHT22;10973;46.706;12.340;2022-07-29T08:32:38;17.00;99.90
21622;DHT22;10973;46.706;12.340;2022-07-29T08:35:23;17.00;99.90
21622;DHT22;10973;46.706;12.340;2022-07-29T08:37:52;17.10;99.90
21622;DHT22;10973;46.706;12.340;2022-07-29T08:40:20;17.20;99.90
21622;DHT22;10973;46.706;12.340;2022-07-29T08:43:06;17.30;99.90
21622;DHT22;10973;46.706;12.340;2022-07-29T08:45:49;17.30;99.90
21622;DHT22;10973;46.706;12.340;2022-07-29T08:48:19;17.30;99.90
21622;DHT22;10973;46.706;12.340;2022-07-29T08:50:52;17.30;99.90
21622;DHT22;10973;46.706;12.340;2022-07-29T08:53:24;17.30;99.90
21622;DHT22;10973;46.706;12.340;2022-07-29T08:55:53;17.40;99.90
21622;DHT22;10973;46.706;12.340;2022-07-29T08:58:22;17.50;99.90
21622;DHT22;10973;46.706;12.340;2022-07-29T09:00:53;17.50;99.90
21622;DHT22;10973;46.706;12.340;2022-07-29T09:03:25;17.60;99.90
21622;DHT22;10973;46.706;12.340;2022-07-29T09:05:58;17.60;99.90
21622;DHT22;10973;46.706;12.340;2022-07-29T09:08:26;17.70;99.90
21622;DHT22;10973;46.706;12.340;2022-07-29T09:10:54;17.80;99.90
21622;DHT22;10973;46.706;12.340;2022-07-29T09:13:22;17.80;99.90
21622;DHT22;10973;46.706;12.340;2022-07-29T09:15:50;17.70;99.90
21622;DHT22;10973;46.706;12.340;2022-07-29T09:18:41;17.90;99.90
21622;DHT22;10973;46.706;12.340;2022-07-29T09:21:11;17.90;99.90
21622;DHT22;10973;46.706;12.340;2022-07-29T09:23:39;17.90;99.90
21622;DHT22;10973;46.706;12.340;2022-07-29T09:26:06;18.00;99.90
21622;DHT22;10973;46.706;12.340;2022-07-29T09:28:34;18.00;99.90
21622;DHT22;10973;46.706;12.340;2022-07-29T09:31:08;18.00;99.90
21622;DHT22;10973;46.706;12.340;2022-07-29T09:33:36;18.10;99.90
21622;DHT22;10973;46.706;12.340;2022-07-29T09:36:06;18.10;99.90
21622;DHT22;10973;46.706;12.340;2022-07-29T09:38:34;18.20;99.90
21622;DHT22;10973;46.706;12.340;2022-07-29T09:41:04;18.30;99.90
21622;DHT22;10973;46.706;12.340;2022-07-29T09:43:33;18.30;99.90
21622;DHT22;10973;46.706;12.340;2022-07-29T09:46:11;18.30;99.90
21622;DHT22;10973;46.706;12.340;2022-07-29T09:48:39;18.40;99.90
21622;DHT22;10973;46.706;12.340;2022-07-29T09:51:20;18.50;99.90
21622;DHT22;10973;46.706;12.340;2022-07-29T09:53:55;18.50;99.90
21622;DHT22;10973;46.706;12.340;2022-07-29T09:56:41;18.60;99.90
21622;DHT22;10973;46.706;12.340;2022-07-29T09:59:09;18.60;99.90
21622;DHT22;10973;46.706;12.340;2022-07-29T10:01:36;18.70;99.90
21622;DHT22;10973;46.706;12.340;2022-07-29T10:04:04;18.80;99.90
21622;DHT22;10973;46.706;12.340;2022-07-29T10:06:31;18.80;99.90
21622;DHT22;10973;46.706;12.340;2022-07-29T10:09:09;18.90;99.90
21622;DHT22;10973;46.706;12.340;2022-07-29T10:11:37;18.90;99.90
21622;DHT22;10973;46.706;12.340;2022-07-29T10:14:15;19.00;99.90
21622;DHT22;10973;46.706;12.340;2022-07-29T10:16:43;19.20;99.90
21622;DHT22;10973;46.706;12.340;2022-07-29T10:19:12;19.20;99.90
21622;DHT22;10973;46.706;12.340;2022-07-29T10:21:40;19.30;99.90
21622;DHT22;10973;46.706;12.340;2022-07-29T10:24:09;19.30;99.90
21622;DHT22;10973;46.706;12.340;2022-07-29T10:26:41;19.40;99.90
21622;DHT22;10973;46.706;12.340;2022-07-29T10:29:09;19.50;99.90
21622;DHT22;10973;46.706;12.340;2022-07-29T10:34:36;19.70;99.90
21622;DHT22;10973;46.706;12.340;2022-07-29T10:40:32;20.00;99.90
21622;DHT22;10973;46.706;12.340;2022-07-29T10:43:25;20.20;99.90
21622;DHT22;10973;46.706;12.340;2022-07-29T10:45:59;20.30;99.90
21622;DHT22;10973;46.706;12.340;2022-07-29T10:48:27;20.50;99.90
21622;DHT22;10973;46.706;12.340;2022-07-29T10:50:56;20.60;99.90
21622;DHT22;10973;46.706;12.340;2022-07-29T10:53:48;20.80;99.90
21622;DHT22;10973;46.706;12.340;2022-07-29T10:56:30;21.00;99.90
21622;DHT22;10973;46.706;12.340;2022-07-29T11:01:48;21.30;99.90
21622;DHT22;10973;46.706;12.340;2022-07-29T11:09:40;21.90;99.90
21622;DHT22;10973;46.706;12.340;2022-07-29T11:15:06;22.20;99.90
21622;DHT22;10973;46.706;12.340;2022-07-29T11:28:50;22.90;98.40
21622;DHT22;10973;46.706;12.340;2022-07-29T11:39:40;23.30;90.20
21622;DHT22;10973;46.706;12.340;2022-07-29T11:47:57;23.50;85.70
21622;DHT22;10973;46.706;12.340;2022-07-29T11:50:46;23.80;88.40
21622;DHT22;10973;46.706;12.340;2022-07-29T11:53:14;24.10;86.50
21622;DHT22;10973;46.706;12.340;2022-07-29T11:55:42;24.30;87.90
21622;DHT22;10973;46.706;12.340;2022-07-29T11:58:22;24.50;85.90
21622;DHT22;10973;46.706;12.340;2022-07-29T12:00:52;24.80;83.20
21622;DHT22;10973;46.706;12.340;2022-07-29T12:03:28;24.80;82.50
21622;DHT22;10973;46.706;12.340;2022-07-29T12:06:10;25.00;83.50
21622;DHT22;10973;46.706;12.340;2022-07-29T12:09:07;25.10;80.90
21622;DHT22;10973;46.706;12.340;2022-07-29T12:11:40;25.20;78.50
21622;DHT22;10973;46.706;12.340;2022-07-29T12:14:30;25.50;83.00
21622;DHT22;10973;46.706;12.340;2022-07-29T12:17:00;26.00;86.90
21622;DHT22;10973;46.706;12.340;2022-07-29T12:19:27;26.20;84.80
21622;DHT22;10973;46.706;12.340;2022-07-29T12:21:57;26.40;86.50
21622;DHT22;10973;46.706;12.340;2022-07-29T12:24:26;26.50;85.80
21622;DHT22;10973;46.706;12.340;2022-07-29T12:27:10;26.70;82.80
21622;DHT22;10973;46.706;12.340;2022-07-29T12:29:39;26.80;83.30
21622;DHT22;10973;46.706;12.340;2022-07-29T12:32:13;27.00;83.70
21622;DHT22;10973;46.706;12.340;2022-07-29T12:34:45;27.10;82.80
21622;DHT22;10973;46.706;12.340;2022-07-29T12:37:14;27.30;82.90
21622;DHT22;10973;46.706;12.340;2022-07-29T12:39:41;27.20;87.20
21622;DHT22;10973;46.706;12.340;2022-07-29T12:42:13;27.10;85.70
21622;DHT22;10973;46.706;12.340;2022-07-29T12:44:49;27.00;87.30
21622;DHT22;10973;46.706;12.340;2022-07-29T12:47:18;27.00;87.30
21622;DHT22;10973;46.706;12.340;2022-07-29T12:49:47;27.00;87.10
21622;DHT22;10973;46.706;12.340;2022-07-29T12:54:56;27.10;86.90
21622;DHT22;10973;46.706;12.340;2022-07-29T12:57:24;27.10;88.20
21622;DHT22;10973;46.706;12.340;2022-07-29T13:00:22;27.30;89.10
21622;DHT22;10973;46.706;12.340;2022-07-29T13:05:44;27.70;81.70
21622;DHT22;10973;46.706;12.340;2022-07-29T13:08:17;27.80;84.80
21622;DHT22;10973;46.706;12.340;2022-07-29T13:10:48;27.90;84.00
21622;DHT22;10973;46.706;12.340;2022-07-29T13:13:15;27.70;84.50
21622;DHT22;10973;46.706;12.340;2022-07-29T13:15:44;27.20;87.70
21622;DHT22;10973;46.706;12.340;2022-07-29T13:18:32;26.70;86.00
21622;DHT22;10973;46.706;12.340;2022-07-29T13:21:12;26.30;84.80
21622;DHT22;10973;46.706;12.340;2022-07-29T13:23:44;26.00;87.40
21622;DHT22;10973;46.706;12.340;2022-07-29T13:26:12;25.70;88.40
21622;DHT22;10973;46.706;12.340;2022-07-29T13:28:39;25.50;90.00
21622;DHT22;10973;46.706;12.340;2022-07-29T13:31:10;25.30;89.30
21622;DHT22;10973;46.706;12.340;2022-07-29T13:33:37;25.30;90.80
21622;DHT22;10973;46.706;12.340;2022-07-29T13:36:04;25.20;90.90
21622;DHT22;10973;46.706;12.340;2022-07-29T13:38:32;25.00;90.40
21622;DHT22;10973;46.706;12.340;2022-07-29T13:41:01;24.80;90.90
21622;DHT22;10973;46.706;12.340;2022-07-29T13:43:29;24.60;91.30
21622;DHT22;10973;46.706;12.340;2022-07-29T13:45:56;24.50;91.50
21622;DHT22;10973;46.706;12.340;2022-07-29T13:48:23;24.50;92.30
21622;DHT22;10973;46.706;12.340;2022-07-29T13:50:50;24.30;93.40
21622;DHT22;10973;46.706;12.340;2022-07-29T13:53:18;24.30;93.30
21622;DHT22;10973;46.706;12.340;2022-07-29T13:55:52;24.20;92.50
21622;DHT22;10973;46.706;12.340;2022-07-29T13:58:20;24.10;93.60
21622;DHT22;10973;46.706;12.340;2022-07-29T14:00:47;24.10;93.20
21622;DHT22;10973;46.706;12.340;2022-07-29T14:03:15;23.90;93.10
21622;DHT22;10973;46.706;12.340;2022-07-29T14:05:42;23.80;92.40
21622;DHT22;10973;46.706;12.340;2022-07-29T14:08:10;23.70;92.40
21622;DHT22;10973;46.706;12.340;2022-07-29T14:10:37;23.60;92.50
21622;DHT22;10973;46.706;12.340;2022-07-29T14:13:04;23.40;92.90
21622;DHT22;10973;46.706;12.340;2022-07-29T14:15:50;23.40;93.20
21622;DHT22;10973;46.706;12.340;2022-07-29T14:18:17;23.30;93.30
21622;DHT22;10973;46.706;12.340;2022-07-29T14:20:44;23.30;94.00
21622;DHT22;10973;46.706;12.340;2022-07-29T14:23:12;23.20;94.50
21622;DHT22;10973;46.706;12.340;2022-07-29T14:25:42;23.10;94.30
21622;DHT22;10973;46.706;12.340;2022-07-29T14:28:10;23.10;95.40
21622;DHT22;10973;46.706;12.340;2022-07-29T14:30:40;23.00;96.00
21622;DHT22;10973;46.706;12.340;2022-07-29T14:33:07;22.90;96.60
21622;DHT22;10973;46.706;12.340;2022-07-29T14:35:34;22.80;96.40
21622;DHT22;10973;46.706;12.340;2022-07-29T14:38:02;22.80;96.50
21622;DHT22;10973;46.706;12.340;2022-07-29T14:40:29;22.70;96.70
21622;DHT22;10973;46.706;12.340;2022-07-29T14:42:56;22.60;97.80
21622;DHT22;10973;46.706;12.340;2022-07-29T14:45:24;22.50;98.20
21622;DHT22;10973;46.706;12.340;2022-07-29T14:47:51;22.40;97.60
21622;DHT22;10973;46.706;12.340;2022-07-29T14:50:23;22.30;98.30
21622;DHT22;10973;46.706;12.340;2022-07-29T14:52:59;22.20;97.60
21622;DHT22;10973;46.706;12.340;2022-07-29T14:59:08;22.10;98.20
21622;DHT22;10973;46.706;12.340;2022-07-29T15:01:35;22.00;98.80
21622;DHT22;10973;46.706;12.340;2022-07-29T15:04:03;21.90;98.50
21622;DHT22;10973;46.706;12.340;2022-07-29T15:06:30;21.90;99.90
21622;DHT22;10973;46.706;12.340;2022-07-29T15:08:57;21.60;99.90
21622;DHT22;10973;46.706;12.340;2022-07-29T15:11:27;21.50;99.90
21622;DHT22;10973;46.706;12.340;2022-07-29T15:13:54;21.40;99.90
21622;DHT22;10973;46.706;12.340;2022-07-29T15:16:22;21.10;99.90
21622;DHT22;10973;46.706;12.340;2022-07-29T15:18:50;20.90;99.90
21622;DHT22;10973;46.706;12.340;2022-07-29T15:21:19;20.90;99.90
21622;DHT22;10973;46.706;12.340;2022-07-29T15:23:46;20.70;99.90
21622;DHT22;10973;46.706;12.340;2022-07-29T15:26:14;20.50;99.90
21622;DHT22;10973;46.706;12.340;2022-07-29T15:28:41;20.50;99.90
21622;DHT22;10973;46.706;12.340;2022-07-29T15:31:08;20.30;99.90
21622;DHT22;10973;46.706;12.340;2022-07-29T15:33:35;20.20;99.90
21622;DHT22;10973;46.706;12.340;2022-07-29T15:36:03;20.10;99.90
21622;DHT22;10973;46.706;12.340;2022-07-29T15:38:30;19.90;99.90
21622;DHT22;10973;46.706;12.340;2022-07-29T15:40:58;19.90;99.90
21622;DHT22;10973;46.706;12.340;2022-07-29T15:43:25;19.80;99.90
21622;DHT22;10973;46.706;12.340;2022-07-29T15:45:53;19.70;99.90
21622;DHT22;10973;46.706;12.340;2022-07-29T15:48:20;19.60;99.90
21622;DHT22;10973;46.706;12.340;2022-07-29T15:50:47;19.50;99.90
21622;DHT22;10973;46.706;12.340;2022-07-29T15:53:14;19.30;99.90
21622;DHT22;10973;46.706;12.340;2022-07-29T15:55:43;19.40;99.90
21622;DHT22;10973;46.706;12.340;2022-07-29T15:58:10;19.20;99.90
21622;DHT22;10973;46.706;12.340;2022-07-29T16:00:37;19.10;99.90
21622;DHT22;10973;46.706;12.340;2022-07-29T16:03:05;19.10;99.90
21622;DHT22;10973;46.706;12.340;2022-07-29T16:05:32;19.20;99.90
21622;DHT22;10973;46.706;12.340;2022-07-29T16:07:59;19.70;99.90
21622;DHT22;10973;46.706;12.340;2022-07-29T16:10:27;20.20;99.90
21622;DHT22;10973;46.706;12.340;2022-07-29T16:12:54;20.60;99.90
21622;DHT22;10973;46.706;12.340;2022-07-29T16:15:21;21.00;99.90
21622;DHT22;10973;46.706;12.340;2022-07-29T16:17:48;20.80;99.90
21622;DHT22;10973;46.706;12.340;2022-07-29T16:20:16;20.60;99.90
21622;DHT22;10973;46.706;12.340;2022-07-29T16:22:44;20.40;99.90
21622;DHT22;10973;46.706;12.340;2022-07-29T16:25:15;20.20;99.90
21622;DHT22;10973;46.706;12.340;2022-07-29T16:27:42;20.40;99.90
21622;DHT22;10973;46.706;12.340;2022-07-29T16:30:10;20.60;99.90
21622;DHT22;10973;46.706;12.340;2022-07-29T16:32:37;20.60;99.90
21622;DHT22;10973;46.706;12.340;2022-07-29T16:35:06;20.70;99.90
21622;DHT22;10973;46.706;12.340;2022-07-29T16:37:34;20.70;99.90
21622;DHT22;10973;46.706;12.340;2022-07-29T16:40:06;20.60;99.90
21622;DHT22;10973;46.706;12.340;2022-07-29T16:42:38;20.50;99.90
21622;DHT22;10973;46.706;12.340;2022-07-29T16:45:17;20.40;99.90
21622;DHT22;10973;46.706;12.340;2022-07-29T16:47:47;20.30;99.90